createdAt,value
2023-05-31T00:03:30.877Z,9.46
2023-05-31T00:06:03.637Z,9.43
2023-05-31T00:08:43.536Z,9.43
2023-05-31T00:11:15.947Z,9.44
2023-05-31T00:13:54.302Z,9.43
2023-05-31T00:17:01.427Z,9.40
2023-05-31T00:20:12.401Z,9.33
2023-05-31T00:23:18.197Z,9.30
2023-05-31T00:25:50.431Z,9.30
2023-05-31T00:28:22.668Z,9.28
2023-05-31T00:35:27.335Z,9.18
2023-05-31T00:38:28.914Z,9.17
2023-05-31T00:41:01.616Z,9.15
2023-05-31T00:43:34.263Z,9.14
2023-05-31T00:46:06.631Z,9.11
2023-05-31T00:48:45.311Z,9.05
2023-05-31T00:51:20.136Z,9.00
2023-05-31T00:54:00.097Z,8.98
2023-05-31T00:56:32.842Z,8.96
2023-05-31T00:59:14.640Z,8.93
2023-05-31T01:01:47.296Z,8.86
2023-05-31T01:04:27.405Z,8.80
2023-05-31T01:07:02.131Z,8.81
2023-05-31T01:10:46.152Z,8.77
2023-05-31T01:26:13.901Z,8.60
2023-05-31T01:36:47.860Z,8.55
2023-05-31T01:39:53.845Z,8.53
2023-05-31T01:46:59.107Z,8.41
2023-05-31T01:49:31.618Z,8.41
2023-05-31T01:52:04.767Z,8.40
2023-05-31T01:54:37.167Z,8.40
2023-05-31T01:57:17.533Z,8.40
2023-05-31T02:00:13.914Z,8.37
2023-05-31T02:03:32.564Z,8.32
2023-05-31T02:06:14.332Z,8.30
2023-05-31T02:09:32.062Z,8.23
2023-05-31T02:12:12.569Z,8.21
2023-05-31T02:19:58.511Z,8.11
2023-05-31T02:22:37.386Z,8.11
2023-05-31T02:28:59.380Z,8.07
2023-05-31T02:31:31.671Z,8.05
2023-05-31T02:34:12.403Z,8.02
2023-05-31T02:36:44.692Z,8.01
2023-05-31T02:39:24.483Z,7.98
2023-05-31T02:47:05.520Z,7.97
2023-05-31T02:49:44.789Z,7.95
2023-05-31T02:52:17.416Z,7.96
2023-05-31T02:55:35.871Z,7.97
2023-05-31T02:58:48.599Z,7.98
2023-05-31T03:02:28.702Z,7.96
2023-05-31T03:05:48.652Z,7.95
2023-05-31T03:08:21.322Z,7.94
2023-05-31T03:11:00.834Z,7.95
2023-05-31T03:13:33.558Z,7.94
2023-05-31T03:20:40.150Z,7.91
2023-05-31T03:23:19.588Z,7.94
2023-05-31T03:25:52.008Z,7.98
2023-05-31T03:32:56.697Z,8.00
2023-05-31T03:35:29.519Z,8.01
2023-05-31T03:38:08.676Z,8.04
2023-05-31T03:40:41.073Z,8.09
2023-05-31T03:43:33.487Z,8.15
2023-05-31T03:46:07.317Z,8.21
2023-05-31T03:48:39.889Z,8.26
2023-05-31T03:51:19.498Z,8.30
2023-05-31T03:53:52.072Z,8.37
2023-05-31T03:56:33.174Z,8.41
2023-05-31T04:04:23.848Z,8.56
2023-05-31T04:11:28.979Z,8.75
2023-05-31T04:23:50.410Z,9.26
2023-05-31T04:27:48.814Z,9.43
2023-05-31T04:30:27.462Z,9.62
2023-05-31T04:37:32.510Z,9.93
2023-05-31T04:40:14.782Z,10.03
2023-05-31T04:42:47.101Z,10.20
2023-05-31T04:45:58.994Z,10.36
2023-05-31T04:52:48.739Z,10.74
2023-05-31T04:55:28.544Z,10.88
2023-05-31T04:58:22.632Z,11.06
2023-05-31T05:00:55.568Z,11.23
2023-05-31T05:03:52.392Z,11.39
2023-05-31T05:06:25.636Z,11.56
2023-05-31T05:12:45.939Z,11.99
2023-05-31T05:15:18.542Z,12.15
2023-05-31T05:17:58.509Z,12.32
2023-05-31T05:20:35.229Z,12.50
2023-05-31T05:34:36.282Z,13.44
2023-05-31T05:38:34.597Z,13.66
2023-05-31T05:41:15.546Z,13.90
2023-05-31T05:44:08.596Z,14.13
2023-05-31T05:47:15.361Z,14.29
2023-05-31T05:49:49.854Z,14.47
2023-05-31T05:52:22.762Z,14.62
2023-05-31T05:54:55.016Z,14.75
2023-05-31T05:57:28.150Z,14.90
2023-05-31T06:00:13.370Z,15.03
2023-05-31T06:03:21.249Z,15.20
2023-05-31T06:05:54.539Z,15.36
2023-05-31T06:09:28.177Z,15.52
2023-05-31T06:12:01.768Z,15.73
2023-05-31T06:14:44.676Z,15.89
2023-05-31T06:17:16.888Z,16.03
2023-05-31T06:19:49.129Z,16.17
2023-05-31T06:23:16.122Z,16.31
2023-05-31T06:34:51.740Z,17.01
2023-05-31T06:37:32.495Z,17.13
2023-05-31T06:40:06.204Z,17.26
2023-05-31T06:42:38.987Z,17.39
2023-05-31T06:46:25.462Z,17.51
2023-05-31T06:53:42.712Z,17.93
2023-05-31T06:56:53.747Z,18.10
2023-05-31T06:59:26.036Z,18.21
2023-05-31T07:02:30.935Z,18.30
2023-05-31T07:05:03.529Z,18.45
2023-05-31T07:07:36.060Z,18.61
2023-05-31T07:10:10.171Z,18.73
2023-05-31T07:12:42.907Z,18.87
2023-05-31T07:19:20.308Z,19.17
2023-05-31T07:27:22.359Z,19.44
2023-05-31T07:30:14.350Z,19.67
2023-05-31T07:33:28.295Z,19.81
2023-05-31T07:36:03.311Z,20.02
2023-05-31T07:38:36.071Z,20.13
2023-05-31T07:48:16.008Z,20.44
2023-05-31T07:50:54.681Z,20.56
2023-05-31T07:57:59.759Z,20.84
2023-05-31T08:00:38.603Z,20.96
2023-05-31T08:03:11.167Z,21.08
2023-05-31T08:10:15.667Z,21.35
2023-05-31T08:12:55.419Z,21.42
2023-05-31T08:15:29.100Z,21.53
2023-05-31T08:26:40.052Z,21.65
2023-05-31T08:29:18.597Z,21.78
2023-05-31T08:36:02.391Z,21.84
2023-05-31T08:46:07.915Z,22.08
2023-05-31T08:58:00.304Z,22.39
2023-05-31T09:00:39.415Z,22.49
2023-05-31T09:03:12.678Z,22.59
2023-05-31T09:06:09.361Z,22.68
2023-05-31T09:08:41.610Z,22.70
2023-05-31T09:11:14.193Z,22.75
2023-05-31T09:13:54.108Z,22.83
2023-05-31T09:16:27.132Z,22.85
2023-05-31T09:19:07.141Z,22.95
2023-05-31T09:26:03.155Z,23.11
2023-05-31T09:33:09.364Z,23.22
2023-05-31T09:44:34.455Z,23.45
2023-05-31T09:56:46.598Z,23.34
2023-05-31T09:59:41.998Z,23.38
2023-05-31T10:03:07.091Z,23.48
2023-05-31T10:10:13.330Z,23.48
2023-05-31T10:21:30.060Z,23.95
2023-05-31T10:24:28.036Z,23.98
2023-05-31T10:36:27.977Z,23.90
2023-05-31T10:43:42.882Z,24.03
2023-05-31T10:49:41.132Z,24.05
2023-05-31T10:57:31.884Z,24.09
2023-05-31T11:07:39.896Z,24.19
2023-05-31T11:23:08.799Z,24.12
2023-05-31T11:30:16.732Z,24.30
2023-05-31T11:37:18.269Z,24.36
2023-05-31T11:39:50.865Z,24.34
2023-05-31T11:47:14.600Z,24.38
2023-05-31T11:50:20.327Z,24.40
2023-05-31T11:52:56.024Z,24.47
2023-05-31T11:56:18.710Z,24.58
2023-05-31T11:58:59.822Z,24.57
2023-05-31T12:10:12.845Z,24.39
2023-05-31T12:12:47.985Z,24.49
2023-05-31T12:19:53.724Z,24.64
2023-05-31T12:22:27.649Z,24.77
2023-05-31T12:25:01.830Z,24.89
2023-05-31T12:28:02.180Z,24.99
2023-05-31T12:30:46.352Z,25.06
2023-05-31T12:34:17.128Z,25.05
2023-05-31T12:45:33.105Z,25.15
2023-05-31T12:49:03.687Z,25.24
2023-05-31T13:14:12.841Z,25.71
2023-05-31T13:21:15.768Z,25.81
2023-05-31T13:23:47.812Z,25.83
2023-05-31T13:30:14.083Z,25.77
2023-05-31T13:32:47.520Z,25.90
2023-05-31T13:35:26.242Z,25.98
2023-05-31T13:37:58.428Z,26.01
2023-05-31T13:40:38.303Z,26.10
2023-05-31T13:43:11.298Z,26.13
2023-05-31T13:45:43.577Z,26.07
2023-05-31T13:48:15.856Z,25.93
2023-05-31T13:50:48.217Z,25.97
2023-05-31T13:57:37.632Z,26.14
2023-05-31T14:03:43.591Z,26.15
2023-05-31T14:10:14.906Z,26.28
2023-05-31T14:12:47.736Z,26.22
2023-05-31T14:15:20.065Z,26.21
2023-05-31T14:17:52.378Z,26.23
2023-05-31T14:21:15.964Z,26.20
2023-05-31T14:23:48.494Z,26.21
2023-05-31T14:26:21.444Z,26.20
2023-05-31T14:29:00.311Z,26.15
2023-05-31T14:31:32.736Z,26.13
2023-05-31T14:38:39.969Z,25.88
2023-05-31T14:48:39.785Z,25.82
2023-05-31T14:51:18.132Z,25.74
2023-05-31T14:53:51.926Z,25.63
2023-05-31T14:56:45.499Z,25.52
2023-05-31T15:03:51.556Z,25.26
2023-05-31T15:15:19.512Z,25.22
2023-05-31T15:17:51.712Z,25.15
2023-05-31T15:20:24.218Z,25.16
2023-05-31T15:22:56.223Z,25.21
2023-05-31T15:25:28.231Z,25.24
2023-05-31T15:32:35.202Z,25.03
2023-05-31T15:39:03.276Z,24.82
2023-05-31T15:42:16.084Z,24.80
2023-05-31T15:44:54.218Z,24.70
2023-05-31T15:47:26.412Z,24.69
2023-05-31T15:50:05.630Z,24.72
2023-05-31T15:52:37.700Z,24.72
2023-05-31T15:55:11.136Z,24.77
2023-05-31T15:57:43.178Z,24.77
2023-05-31T16:00:17.847Z,24.69
2023-05-31T16:02:53.031Z,24.55
2023-05-31T16:05:26.267Z,24.42
2023-05-31T16:08:01.066Z,24.38
2023-05-31T16:10:34.557Z,24.35
2023-05-31T16:13:09.057Z,24.34
2023-05-31T16:15:43.148Z,24.28
2023-05-31T16:18:15.585Z,24.20
2023-05-31T16:20:48.300Z,24.18
2023-05-31T16:23:20.558Z,24.16
2023-05-31T16:25:54.581Z,24.10
2023-05-31T16:28:27.015Z,24.08
2023-05-31T16:31:13.466Z,24.02
2023-05-31T16:33:46.755Z,23.98
2023-05-31T16:36:19.275Z,23.90
2023-05-31T16:39:02.286Z,23.79
2023-05-31T16:41:34.510Z,23.71
2023-05-31T16:44:46.307Z,23.69
2023-05-31T16:47:20.621Z,23.66
2023-05-31T16:49:52.920Z,23.64
2023-05-31T16:52:25.680Z,23.54
2023-05-31T16:54:59.131Z,22.68
2023-05-31T16:57:31.246Z,22.19
2023-05-31T17:00:03.376Z,22.13
2023-05-31T17:02:35.854Z,22.21
2023-05-31T17:05:10.661Z,22.19
2023-05-31T17:07:55.951Z,22.24
2023-05-31T17:10:28.722Z,22.30
2023-05-31T17:13:04.642Z,22.30
2023-05-31T17:15:37.091Z,22.26
2023-05-31T17:18:09.592Z,22.25
2023-05-31T17:20:44.549Z,22.26
2023-05-31T17:23:29.868Z,22.20
2023-05-31T17:26:02.521Z,22.10
2023-05-31T17:28:35.004Z,22.01
2023-05-31T17:31:07.882Z,21.92
2023-05-31T17:33:40.140Z,21.87
2023-05-31T17:36:13.253Z,21.82
2023-05-31T17:38:45.450Z,21.75
2023-05-31T17:41:19.807Z,21.68
2023-05-31T17:44:01.407Z,21.59
2023-05-31T17:46:33.697Z,21.48
2023-05-31T17:49:06.028Z,21.37
2023-05-31T17:51:38.735Z,21.25
2023-05-31T17:54:11.711Z,21.14
2023-05-31T17:56:45.580Z,21.02
2023-05-31T17:59:18.328Z,20.84
2023-05-31T18:01:53.110Z,20.68
2023-05-31T18:04:34.728Z,20.54
2023-05-31T18:07:07.505Z,20.42
2023-05-31T18:09:39.721Z,20.28
2023-05-31T18:12:12.733Z,20.13
2023-05-31T18:14:46.018Z,19.98
2023-05-31T18:17:18.622Z,19.84
2023-05-31T18:19:50.855Z,19.72
2023-05-31T18:22:23.859Z,19.59
2023-05-31T18:24:57.153Z,19.43
2023-05-31T18:27:29.322Z,19.25
2023-05-31T18:30:02.018Z,19.08
2023-05-31T18:32:36.698Z,18.90
2023-05-31T18:35:09.903Z,18.72
2023-05-31T18:37:44.524Z,18.56
2023-05-31T18:40:16.790Z,18.35
2023-05-31T18:42:49.112Z,18.19
2023-05-31T18:45:21.295Z,18.07
2023-05-31T18:47:53.916Z,17.94
2023-05-31T18:50:26.615Z,17.82
2023-05-31T18:52:58.896Z,17.72
2023-05-31T18:55:31.978Z,17.60
2023-05-31T18:58:06.367Z,17.47
2023-05-31T19:00:47.428Z,17.30
2023-05-31T19:03:20.006Z,17.16
2023-05-31T19:05:54.298Z,17.02
2023-05-31T19:08:28.452Z,16.87
2023-05-31T19:11:01.274Z,16.76
2023-05-31T19:13:33.992Z,16.62
2023-05-31T19:16:06.848Z,16.50
2023-05-31T19:18:39.365Z,16.36
2023-05-31T19:21:11.663Z,16.24
2023-05-31T19:23:45.941Z,16.17
2023-05-31T19:29:32.553Z,15.97
2023-05-31T19:32:10.840Z,15.86
2023-05-31T19:34:59.823Z,15.77
2023-05-31T19:37:32.538Z,15.66
2023-05-31T19:40:08.962Z,15.59
2023-05-31T19:42:51.439Z,15.49
2023-05-31T19:45:23.922Z,15.36
2023-05-31T19:47:56.233Z,15.20
2023-05-31T19:50:36.338Z,15.11
2023-05-31T19:53:08.563Z,15.04
2023-05-31T19:55:42.535Z,14.97
2023-05-31T19:58:28.931Z,14.83
2023-05-31T20:04:55.451Z,14.56
2023-05-31T20:07:27.739Z,14.43
2023-05-31T20:14:30.917Z,14.22
2023-05-31T20:17:03.153Z,14.16
2023-05-31T20:19:36.711Z,14.15
2023-05-31T20:22:10.086Z,14.07
2023-05-31T20:24:49.059Z,13.98
2023-05-31T20:28:07.949Z,13.93
